Route Details

Aircraft Information
Group: Large Widebodies
Types: B744, MD11
Route Data
Distance: 1562nm
Duration: 3h 39m
Origin METAR: SEQM 010500Z 02003KT 9999 BKN020 13/12 Q1026 NOSIG RMK A3030
Dest. METAR: KMIA 010453Z 13004KT 10SM CLR 23/20 A3019 RMK AO2 SLP222 T02280200 402890222 $
Freight Data
(for Feb 1, 2023)
Load Factor:
55%
Manifested Cargo: 131,609lbs
Financial History
Total Freight: 1,626,100lbs
Average Load: 0lbs/flt
Fuel Used: 799,599lbs
Avg. Fuel Used: 0lbs/flt
Fuel Expense: $343,878
Avg. Fuel Expense: $0
Avg. Fuel Cost: $0/lbs
Total Gross Income: $4,732,260
Pilot Pay: $2,120
Total Expenses: $705,267
Total Revenue: $3,672,102
Average Revenue: $0

Capitol Logistics 787




SEQM
Mariscal Sucre International Airport
Quito, EC
KMIA
Miami International Airport
Miami, US